Aviation Digital Data Service (ADDS)

Output produced by METARs form (1227 UTC 17 September 2019)
found at http://www.aviationweather.gov/metar/data/
 
VTBD 171200Z 22010KT 8000 -RA FEW018CB SCT030 BKN100 27/24 Q1007 RETS NOSIG
VTBD 171130Z 17013KT 5000 TSRA FEW018CB SCT030 BKN100 28/24 Q1007 TEMPO TL1150 3000 TSRA
VTBD 171100Z 09006KT 050V150 9999 FEW020CB SCT035 32/26 Q1005 TEMPO FM1105 TL1150 5000 TSRA
VTBD 171030Z 13006KT 100V180 9999 FEW020 33/25 Q1005 NOSIG
VTBD 171000Z 09007KT 070V130 9999 FEW020 34/23 Q1005 NOSIG
VTBD 170930Z 09006KT 050V140 9999 FEW020 34/24 Q1005 NOSIG
VTBD 170900Z 12008KT 070V150 9999 FEW020 35/22 Q1005 NOSIG
VTBD 170830Z 09006KT 050V150 9999 FEW020 35/23 Q1005 NOSIG
VTBD 170800Z 11007KT 050V170 9999 FEW030 35/23 Q1005 NOSIG
VTBD 170730Z 13005KT 060V210 9999 FEW030 35/24 Q1005 NOSIG
VTBD 170700Z 07010KT 9999 SCT030 34/24 Q1006 NOSIG
VTBD 170630Z 07006KT 010V120 9999 SCT030 34/24 Q1006 NOSIG
VTBD 170600Z 08005KT 350V120 9999 SCT030 34/24 Q1007 NOSIG
VTBD 170530Z 36006KT 9999 SCT030 33/26 Q1007 NOSIG
VTBD 170500Z 01006KT 320V070 9999 SCT030 32/24 Q1008 NOSIG
VTBD 170430Z 21003KT 9999 FEW020 33/24 Q1009 NOSIG
VTBD 170400Z 30002KT 9999 FEW020 32/25 Q1009 NOSIG
VTBD 170330Z 27003KT 9999 FEW020 31/26 Q1009 NOSIG
VTBD 170300Z 32005KT 280V350 9999 FEW020 SCT040 30/25 Q1009 NOSIG
VTBD 170230Z 31003KT 240V030 9999 FEW020 30/26 Q1009 NOSIG
VTBD 170200Z 31005KT 280V340 9999 FEW020 29/26 Q1009 NOSIG
VTBD 170130Z 35003KT 290V040 9999 FEW020 29/27 Q1009 NOSIG
VTBD 170100Z 32002KT 8000 FEW020 SCT035 29/26 Q1009 NOSIG
VTBD 170030Z 00000KT 8000 FEW020 SCT035 28/26 Q1008 NOSIG
VTBD 170000Z 31003KT 270V330 8000 FEW020 SCT035 27/26 Q1008 NOSIG
VTBD 162330Z 28003KT 210V330 8000 FEW015 SCT030 BKN080 27/26 Q1008 NOSIG
VTBD 162300Z 00000KT 9999 FEW020 SCT035 27/25 Q1008 NOSIG
VTBD 162230Z 00000KT 9999 FEW020 27/25 Q1008 NOSIG
VTBD 162200Z 00000KT 9999 FEW020 27/25 Q1007 NOSIG
VTBD 162130Z 00000KT 9999 FEW020 27/25 Q1007 NOSIG
VTBD 162100Z 20003KT 9999 FEW020 27/25 Q1007 NOSIG
VTBD 162030Z 18003KT 9999 FEW020 27/26 Q1007 NOSIG
VTBD 162000Z VRB02KT 9999 FEW020 27/27 Q1007 NOSIG
VTBD 161930Z 00000KT 9999 FEW020 27/26 Q1007 NOSIG
VTBD 161900Z 08003KT 050V110 9999 FEW020 SCT090 27/27 Q1007 NOSIG
VTBD 161830Z 06003KT 9999 FEW020 SCT090 27/27 Q1007 NOSIG
VTBD 161800Z 05004KT 9999 FEW020 SCT090 27/27 Q1007 NOSIG
VTBD 161730Z 06005KT 9999 FEW020 BKN070 28/26 Q1008 NOSIG
VTBD 161700Z 06006KT 9999 FEW020 BKN070 28/26 Q1008 NOSIG
VTBD 161630Z 06006KT 9999 FEW020 BKN070 28/26 Q1008 NOSIG
VTBD 161600Z 07005KT 9999 FEW020 BKN070 28/26 Q1008 NOSIG
VTBD 161530Z 13004KT 110V170 9999 FEW020 29/26 Q1008 NOSIG
VTBD 161500Z 13003KT 9999 FEW020 29/26 Q1007 NOSIG
VTBD 161430Z 15004KT 9999 FEW020 29/26 Q1007 NOSIG
VTBD 161400Z 17004KT 9999 FEW020 29/26 Q1007 NOSIG
VTBD 161330Z VRB02KT 9999 FEW020 29/25 Q1007 NOSIG
VTBD 161300Z 18002KT 9999 FEW020 29/25 Q1006 NOSIG
VTBD 161230Z 00000KT 9999 FEW020 29/25 Q1006 NOSIG
TAF VTBD 171100Z 1712/1818 23008KT 9000 FEW020 SCT100 
     TEMPO 1712/1717 03010G25KT 5000 TSRA FEW018CB SCT030 BKN100 
     BECMG 1719/1721 00000KT 6000 
     BECMG 1801/1803 03008KT 9000